sensor_id;sensor_type;location;lat;lon;timestamp;pressure;altitude;pressure_sealevel;temperature;humidity
68107;BME280;54892;47.488;19.026;2023-03-26T00:02:29;99482.16;;;10.04;58.19
68107;BME280;54892;47.488;19.026;2023-03-26T00:05:31;99466.84;;;10.01;58.28
68107;BME280;54892;47.488;19.026;2023-03-26T00:08:35;99466.59;;;10.08;58.26
68107;BME280;54892;47.488;19.026;2023-03-26T00:11:40;99465.81;;;9.92;58.48
68107;BME280;54892;47.488;19.026;2023-03-26T00:14:43;99474.78;;;9.96;58.63
68107;BME280;54892;47.488;19.026;2023-03-26T00:17:46;99473.97;;;9.90;58.55
68107;BME280;54892;47.488;19.026;2023-03-26T00:20:49;99472.66;;;9.77;59.01
68107;BME280;54892;47.488;19.026;2023-03-26T00:23:52;99473.69;;;9.71;59.35
68107;BME280;54892;47.488;19.026;2023-03-26T00:26:57;99473.16;;;9.69;59.54
68107;BME280;54892;47.488;19.026;2023-03-26T00:30:00;99482.13;;;9.68;59.42
68107;BME280;54892;47.488;19.026;2023-03-26T00:33:04;99468.94;;;9.68;59.40
68107;BME280;54892;47.488;19.026;2023-03-26T00:36:09;99480.00;;;9.59;59.41
68107;BME280;54892;47.488;19.026;2023-03-26T00:39:14;99469.50;;;9.65;59.37
68107;BME280;54892;47.488;19.026;2023-03-26T00:42:19;99465.50;;;9.41;60.15
68107;BME280;54892;47.488;19.026;2023-03-26T00:45:22;99450.47;;;9.42;60.49
68107;BME280;54892;47.488;19.026;2023-03-26T00:48:25;99449.69;;;9.47;60.14
68107;BME280;54892;47.488;19.026;2023-03-26T00:51:38;99437.84;;;9.54;59.79
68107;BME280;54892;47.488;19.026;2023-03-26T00:54:41;99439.94;;;9.42;60.06
68107;BME280;54892;47.488;19.026;2023-03-26T00:57:46;99439.69;;;9.49;59.84
68107;BME280;54892;47.488;19.026;2023-03-26T01:00:50;99427.31;;;9.44;59.98
68107;BME280;54892;47.488;19.026;2023-03-26T01:03:53;99436.78;;;9.50;59.67
68107;BME280;54892;47.488;19.026;2023-03-26T01:07:08;99426.00;;;9.67;59.33
68107;BME280;54892;47.488;19.026;2023-03-26T01:10:12;99429.97;;;9.65;59.27
68107;BME280;54892;47.488;19.026;2023-03-26T01:13:17;99423.88;;;9.74;58.48
68107;BME280;54892;47.488;19.026;2023-03-26T01:16:22;99427.31;;;9.59;59.15
68107;BME280;54892;47.488;19.026;2023-03-26T01:19:30;99423.38;;;9.72;58.47
68107;BME280;54892;47.488;19.026;2023-03-26T01:22:38;99423.63;;;9.76;58.45
68107;BME280;54892;47.488;19.026;2023-03-26T01:25:44;99419.94;;;9.67;58.53
68107;BME280;54892;47.488;19.026;2023-03-26T01:28:50;99422.03;;;9.70;58.35
68107;BME280;54892;47.488;19.026;2023-03-26T01:32:02;99419.69;;;9.79;57.96
68107;BME280;54892;47.488;19.026;2023-03-26T01:35:13;99418.34;;;9.86;57.51
68107;BME280;54892;47.488;19.026;2023-03-26T01:38:21;99424.94;;;9.73;57.81
68107;BME280;54892;47.488;19.026;2023-03-26T01:41:29;99423.38;;;9.72;57.90
68107;BME280;54892;47.488;19.026;2023-03-26T01:44:34;99441.28;;;9.70;57.69
68107;BME280;54892;47.488;19.026;2023-03-26T01:47:41;99446.28;;;9.67;57.77
68107;BME280;54892;47.488;19.026;2023-03-26T01:50:44;99442.59;;;9.68;57.82
68107;BME280;54892;47.488;19.026;2023-03-26T01:53:49;99432.59;;;9.75;57.37
68107;BME280;54892;47.488;19.026;2023-03-26T01:56:57;99436.53;;;9.62;57.81
68107;BME280;54892;47.488;19.026;2023-03-26T02:00:09;99442.59;;;9.68;57.56
68107;BME280;54892;47.488;19.026;2023-03-26T02:03:18;99437.63;;;9.71;57.47
68107;BME280;54892;47.488;19.026;2023-03-26T02:06:25;99452.59;;;9.66;57.73
68107;BME280;54892;47.488;19.026;2023-03-26T02:09:32;99449.97;;;9.66;57.74
68107;BME280;54892;47.488;19.026;2023-03-26T02:12:38;99459.47;;;9.62;57.92
68107;BME280;54892;47.488;19.026;2023-03-26T02:15:52;99461.31;;;9.56;58.20
68107;BME280;54892;47.488;19.026;2023-03-26T02:18:58;99463.66;;;9.52;58.35
68107;BME280;54892;47.488;19.026;2023-03-26T02:22:01;99473.41;;;9.47;58.62
68107;BME280;54892;47.488;19.026;2023-03-26T02:25:04;99476.31;;;9.45;58.70
68107;BME280;54892;47.488;19.026;2023-03-26T02:28:09;99468.66;;;9.49;58.71
68107;BME280;54892;47.488;19.026;2023-03-26T02:31:12;99466.81;;;9.44;58.89
68107;BME280;54892;47.488;19.026;2023-03-26T02:34:17;99466.25;;;9.37;59.11
68107;BME280;54892;47.488;19.026;2023-03-26T02:37:19;99464.66;;;9.36;59.12
68107;BME280;54892;47.488;19.026;2023-03-26T02:40:22;99457.56;;;9.31;59.42
68107;BME280;54892;47.488;19.026;2023-03-26T02:43:26;99460.47;;;9.29;59.42
68107;BME280;54892;47.488;19.026;2023-03-26T02:46:29;99456.00;;;9.35;59.13
68107;BME280;54892;47.488;19.026;2023-03-26T02:49:33;99445.72;;;9.28;59.33
68107;BME280;54892;47.488;19.026;2023-03-26T02:52:36;99452.56;;;9.29;59.34
68107;BME280;54892;47.488;19.026;2023-03-26T02:55:39;99445.94;;;9.22;59.62
68107;BME280;54892;47.488;19.026;2023-03-26T02:58:43;99439.88;;;9.21;59.50
68107;BME280;54892;47.488;19.026;2023-03-26T03:01:47;99436.72;;;9.14;59.76
68107;BME280;54892;47.488;19.026;2023-03-26T03:04:50;99437.75;;;9.13;60.05
68107;BME280;54892;47.488;19.026;2023-03-26T03:08:02;99445.63;;;8.97;60.48
68107;BME280;54892;47.488;19.026;2023-03-26T03:11:07;99438.75;;;8.96;60.64
68107;BME280;54892;47.488;19.026;2023-03-26T03:14:11;99440.84;;;8.94;60.94
68107;BME280;54892;47.488;19.026;2023-03-26T03:17:15;99444.03;;;8.96;60.69
68107;BME280;54892;47.488;19.026;2023-03-26T03:20:18;99443.75;;;8.93;60.87
68107;BME280;54892;47.488;19.026;2023-03-26T03:23:22;99441.12;;;8.93;60.56
68107;BME280;54892;47.488;19.026;2023-03-26T03:26:26;99442.94;;;8.92;60.63
68107;BME280;54892;47.488;19.026;2023-03-26T03:29:31;99442.94;;;8.92;60.58
68107;BME280;54892;47.488;19.026;2023-03-26T03:32:34;99440.28;;;8.82;61.04
68107;BME280;54892;47.488;19.026;2023-03-26T03:35:37;99439.13;;;8.62;61.79
68107;BME280;54892;47.488;19.026;2023-03-26T03:38:42;99438.31;;;8.57;61.85
68107;BME280;54892;47.488;19.026;2023-03-26T03:41:46;99439.66;;;8.59;61.80
68107;BME280;54892;47.488;19.026;2023-03-26T03:44:52;99444.78;;;8.38;62.33
68107;BME280;54892;47.488;19.026;2023-03-26T03:47:55;99446.28;;;8.29;62.66
68107;BME280;54892;47.488;19.026;2023-03-26T03:50:58;99459.91;;;8.21;63.49
68107;BME280;54892;47.488;19.026;2023-03-26T03:54:03;99463.69;;;8.35;63.32
68107;BME280;54892;47.488;19.026;2023-03-26T03:57:06;99463.19;;;8.38;63.05
68107;BME280;54892;47.488;19.026;2023-03-26T04:00:12;99464.72;;;8.34;63.22
68107;BME280;54892;47.488;19.026;2023-03-26T04:03:16;99456.03;;;8.34;63.26
68107;BME280;54892;47.488;19.026;2023-03-26T04:06:19;99474.16;;;8.25;63.37
68107;BME280;54892;47.488;19.026;2023-03-26T04:09:22;99473.06;;;8.26;63.37
68107;BME280;54892;47.488;19.026;2023-03-26T04:12:25;99477.56;;;8.26;63.45
68107;BME280;54892;47.488;19.026;2023-03-26T04:15:30;99473.59;;;8.23;63.47
68107;BME280;54892;47.488;19.026;2023-03-26T04:18:36;99470.44;;;8.21;63.43
68107;BME280;54892;47.488;19.026;2023-03-26T04:21:39;99466.44;;;8.18;63.50
68107;BME280;54892;47.488;19.026;2023-03-26T04:24:43;99470.38;;;8.16;63.64
68107;BME280;54892;47.488;19.026;2023-03-26T04:27:46;99458.75;;;8.06;63.89
68107;BME280;54892;47.488;19.026;2023-03-26T04:30:51;99455.00;;;7.97;64.33
68107;BME280;54892;47.488;19.026;2023-03-26T04:33:54;99447.56;;;7.89;64.37
68107;BME280;54892;47.488;19.026;2023-03-26T04:37:00;99447.97;;;8.08;63.54
68107;BME280;54892;47.488;19.026;2023-03-26T04:40:05;99450.25;;;7.94;63.83
68107;BME280;54892;47.488;19.026;2023-03-26T04:43:10;99454.50;;;8.00;63.74
68107;BME280;54892;47.488;19.026;2023-03-26T04:46:15;99453.25;;;8.08;63.27
68107;BME280;54892;47.488;19.026;2023-03-26T04:49:22;99463.25;;;8.11;63.38
68107;BME280;54892;47.488;19.026;2023-03-26T04:52:25;99456.38;;;8.05;63.40
68107;BME280;54892;47.488;19.026;2023-03-26T04:55:30;99458.25;;;8.10;63.06
68107;BME280;54892;47.488;19.026;2023-03-26T04:58:34;99456.38;;;8.05;63.02
68107;BME280;54892;47.488;19.026;2023-03-26T05:01:38;99467.19;;;8.14;62.79
68107;BME280;54892;47.488;19.026;2023-03-26T05:04:42;99471.84;;;8.39;61.66
68107;BME280;54892;47.488;19.026;2023-03-26T05:07:46;99458.56;;;8.51;61.33
68107;BME280;54892;47.488;19.026;2023-03-26T05:10:50;99449.97;;;8.71;60.85
68107;BME280;54892;47.488;19.026;2023-03-26T05:13:53;99449.25;;;8.91;59.92
68107;BME280;54892;47.488;19.026;2023-03-26T05:16:58;99450.59;;;8.99;59.67
68107;BME280;54892;47.488;19.026;2023-03-26T05:20:03;99458.28;;;9.11;59.70
68107;BME280;54892;47.488;19.026;2023-03-26T05:23:06;99449.66;;;9.31;60.42
68107;BME280;54892;47.488;19.026;2023-03-26T05:26:09;99452.06;;;9.43;59.50
68107;BME280;54892;47.488;19.026;2023-03-26T05:29:13;99452.56;;;9.35;60.40
68107;BME280;54892;47.488;19.026;2023-03-26T05:32:19;99447.28;;;9.35;60.16
68107;BME280;54892;47.488;19.026;2023-03-26T05:35:22;99447.34;;;9.60;58.29
68107;BME280;54892;47.488;19.026;2023-03-26T05:38:25;99444.19;;;10.00;57.59
68107;BME280;54892;47.488;19.026;2023-03-26T05:41:29;99445.69;;;10.73;55.55
68107;BME280;54892;47.488;19.026;2023-03-26T05:44:32;99448.34;;;11.29;53.94
68107;BME280;54892;47.488;19.026;2023-03-26T05:47:37;99449.88;;;11.30;53.31
68107;BME280;54892;47.488;19.026;2023-03-26T05:50:40;99451.66;;;11.84;51.80
68107;BME280;54892;47.488;19.026;2023-03-26T05:53:45;99456.38;;;12.52;49.59
68107;BME280;54892;47.488;19.026;2023-03-26T05:56:48;99461.81;;;13.66;47.04
68107;BME280;54892;47.488;19.026;2023-03-26T05:59:51;99455.69;;;13.85;45.79
68107;BME280;54892;47.488;19.026;2023-03-26T06:02:56;99454.94;;;13.46;47.14
68107;BME280;54892;47.488;19.026;2023-03-26T06:06:02;99448.41;;;13.38;47.11
68107;BME280;54892;47.488;19.026;2023-03-26T06:09:08;99442.44;;;13.28;46.97
68107;BME280;54892;47.488;19.026;2023-03-26T06:12:13;99447.50;;;13.48;46.58
68107;BME280;54892;47.488;19.026;2023-03-26T06:15:16;99447.72;;;13.85;45.74
68107;BME280;54892;47.488;19.026;2023-03-26T06:18:21;99448.28;;;15.27;42.66
68107;BME280;54892;47.488;19.026;2023-03-26T06:21:24;99445.63;;;16.58;38.74
68107;BME280;54892;47.488;19.026;2023-03-26T06:24:27;99437.66;;;16.75;38.23
68107;BME280;54892;47.488;19.026;2023-03-26T06:27:30;99435.41;;;17.53;36.70
68107;BME280;54892;47.488;19.026;2023-03-26T06:30:34;99445.16;;;17.49;36.94
68107;BME280;54892;47.488;19.026;2023-03-26T06:33:38;99437.09;;;17.75;36.97
68107;BME280;54892;47.488;19.026;2023-03-26T06:36:41;99443.38;;;17.79;35.97
68107;BME280;54892;47.488;19.026;2023-03-26T06:39:44;99453.06;;;19.09;33.89
68107;BME280;54892;47.488;19.026;2023-03-26T06:42:48;99444.75;;;19.66;32.23
68107;BME280;54892;47.488;19.026;2023-03-26T06:45:51;99452.06;;;20.61;32.19
68107;BME280;54892;47.488;19.026;2023-03-26T06:48:56;99444.69;;;21.52;29.94
68107;BME280;54892;47.488;19.026;2023-03-26T06:52:00;99451.44;;;21.17;29.32
68107;BME280;54892;47.488;19.026;2023-03-26T06:55:04;99457.09;;;20.75;30.33
68107;BME280;54892;47.488;19.026;2023-03-26T06:58:10;99463.00;;;20.43;31.34
68107;BME280;54892;47.488;19.026;2023-03-26T07:01:14;99468.50;;;20.59;31.21
68107;BME280;54892;47.488;19.026;2023-03-26T07:04:18;99454.97;;;20.68;30.83
68107;BME280;54892;47.488;19.026;2023-03-26T07:07:21;99466.97;;;21.81;28.94
68107;BME280;54892;47.488;19.026;2023-03-26T07:10:25;99455.06;;;22.26;27.93
68107;BME280;54892;47.488;19.026;2023-03-26T07:13:28;99465.66;;;22.87;27.21
68107;BME280;54892;47.488;19.026;2023-03-26T07:16:31;99463.84;;;23.89;25.60
68107;BME280;54892;47.488;19.026;2023-03-26T07:19:36;99455.75;;;24.86;24.72
68107;BME280;54892;47.488;19.026;2023-03-26T07:22:39;99455.00;;;25.50;23.70
68107;BME280;54892;47.488;19.026;2023-03-26T07:25:43;99471.00;;;26.59;22.18
68107;BME280;54892;47.488;19.026;2023-03-26T07:28:46;99468.09;;;26.90;22.04
68107;BME280;54892;47.488;19.026;2023-03-26T07:31:53;99460.50;;;27.21;22.07
68107;BME280;54892;47.488;19.026;2023-03-26T07:35:00;99474.38;;;27.09;22.32
68107;BME280;54892;47.488;19.026;2023-03-26T07:38:11;99468.56;;;27.10;22.07
68107;BME280;54892;47.488;19.026;2023-03-26T07:41:21;99477.88;;;27.13;22.41
68107;BME280;54892;47.488;19.026;2023-03-26T07:44:35;99474.78;;;27.18;22.68
68107;BME280;54892;47.488;19.026;2023-03-26T07:47:47;99479.38;;;25.57;24.17
68107;BME280;54892;47.488;19.026;2023-03-26T07:50:56;99475.41;;;23.90;26.20
68107;BME280;54892;47.488;19.026;2023-03-26T07:54:01;99478.38;;;24.54;26.31
68107;BME280;54892;47.488;19.026;2023-03-26T07:57:05;99479.56;;;24.30;26.61
68107;BME280;54892;47.488;19.026;2023-03-26T08:00:10;99483.28;;;23.20;27.44
68107;BME280;54892;47.488;19.026;2023-03-26T08:03:23;99478.50;;;22.42;28.91
68107;BME280;54892;47.488;19.026;2023-03-26T08:06:31;99475.91;;;21.28;30.31
68107;BME280;54892;47.488;19.026;2023-03-26T08:09:37;99476.38;;;20.06;32.36
68107;BME280;54892;47.488;19.026;2023-03-26T08:12:47;99468.59;;;18.86;34.69
68107;BME280;54892;47.488;19.026;2023-03-26T08:15:52;99472.22;;;18.21;36.00
68107;BME280;54892;47.488;19.026;2023-03-26T08:19:02;99468.97;;;17.72;37.18
68107;BME280;54892;47.488;19.026;2023-03-26T08:22:12;99464.28;;;17.25;38.83
68107;BME280;54892;47.488;19.026;2023-03-26T08:25:27;99464.28;;;17.07;39.27
68107;BME280;54892;47.488;19.026;2023-03-26T08:28:39;99465.63;;;16.87;39.70
68107;BME280;54892;47.488;19.026;2023-03-26T08:31:49;99459.34;;;16.83;39.69
68107;BME280;54892;47.488;19.026;2023-03-26T08:34:52;99466.69;;;16.77;39.77
68107;BME280;54892;47.488;19.026;2023-03-26T08:37:56;99460.53;;;16.68;40.01
68107;BME280;54892;47.488;19.026;2023-03-26T08:44:44;99447.91;;;16.42;41.21
68107;BME280;54892;47.488;19.026;2023-03-26T08:51:27;99441.66;;;16.06;41.93
68107;BME280;54892;47.488;19.026;2023-03-26T09:08:31;99441.84;;;16.50;41.22
68107;BME280;54892;47.488;19.026;2023-03-26T09:18:35;99437.78;;;16.53;39.22
68107;BME280;54892;47.488;19.026;2023-03-26T09:25:20;99424.63;;;16.65;38.67
68107;BME280;54892;47.488;19.026;2023-03-26T09:31:57;99413.69;;;16.84;38.04
68107;BME280;54892;47.488;19.026;2023-03-26T09:35:20;99410.38;;;16.70;38.04
68107;BME280;54892;47.488;19.026;2023-03-26T09:38:32;99408.69;;;16.83;38.39
68107;BME280;54892;47.488;19.026;2023-03-26T09:41:42;99414.72;;;17.06;37.99
68107;BME280;54892;47.488;19.026;2023-03-26T09:44:56;99409.84;;;17.17;37.68
68107;BME280;54892;47.488;19.026;2023-03-26T09:48:19;99400.75;;;17.00;37.07
68107;BME280;54892;47.488;19.026;2023-03-26T09:55:08;99386.25;;;16.66;37.00
68107;BME280;54892;47.488;19.026;2023-03-26T10:01:51;99383.44;;;16.71;37.53
68107;BME280;54892;47.488;19.026;2023-03-26T10:05:02;99374.34;;;16.64;37.74
68107;BME280;54892;47.488;19.026;2023-03-26T10:08:17;99362.56;;;16.56;38.09
68107;BME280;54892;47.488;19.026;2023-03-26T10:11:31;99347.50;;;16.42;37.45
68107;BME280;54892;47.488;19.026;2023-03-26T10:14:37;99350.31;;;16.37;37.59
68107;BME280;54892;47.488;19.026;2023-03-26T10:17:53;99348.25;;;16.34;38.19
68107;BME280;54892;47.488;19.026;2023-03-26T10:21:00;99353.25;;;16.36;38.56
68107;BME280;54892;47.488;19.026;2023-03-26T10:24:08;99348.38;;;16.29;39.42
68107;BME280;54892;47.488;19.026;2023-03-26T10:27:25;99358.69;;;16.13;39.99
68107;BME280;54892;47.488;19.026;2023-03-26T10:33:55;99378.91;;;15.60;45.81
68107;BME280;54892;47.488;19.026;2023-03-26T10:37:03;99392.63;;;15.07;48.49
68107;BME280;54892;47.488;19.026;2023-03-26T10:40:12;99374.19;;;14.46;53.06
68107;BME280;54892;47.488;19.026;2023-03-26T10:46:58;99349.50;;;14.04;58.86
68107;BME280;54892;47.488;19.026;2023-03-26T10:50:13;99338.91;;;14.32;57.80
68107;BME280;54892;47.488;19.026;2023-03-26T10:53:27;99330.91;;;14.60;57.55
68107;BME280;54892;47.488;19.026;2023-03-26T10:56:35;99329.38;;;14.82;55.94
68107;BME280;54892;47.488;19.026;2023-03-26T10:59:41;99319.62;;;14.91;54.73
68107;BME280;54892;47.488;19.026;2023-03-26T11:02:46;99307.75;;;15.11;52.82
68107;BME280;54892;47.488;19.026;2023-03-26T11:05:59;99306.72;;;15.21;52.24
68107;BME280;54892;47.488;19.026;2023-03-26T11:09:09;99297.75;;;15.17;51.77
68107;BME280;54892;47.488;19.026;2023-03-26T11:12:19;99285.44;;;15.21;53.14
68107;BME280;54892;47.488;19.026;2023-03-26T11:15:25;99282.06;;;15.06;52.22
68107;BME280;54892;47.488;19.026;2023-03-26T11:18:32;99272.75;;;14.95;52.15
68107;BME280;54892;47.488;19.026;2023-03-26T11:21:41;99266.78;;;14.89;55.26
68107;BME280;54892;47.488;19.026;2023-03-26T11:24:56;99268.09;;;14.78;53.12
68107;BME280;54892;47.488;19.026;2023-03-26T11:28:08;99260.72;;;14.75;53.85
68107;BME280;54892;47.488;19.026;2023-03-26T11:31:21;99247.50;;;14.84;51.68
68107;BME280;54892;47.488;19.026;2023-03-26T11:34:28;99240.13;;;14.81;52.86
68107;BME280;54892;47.488;19.026;2023-03-26T11:37:40;99240.03;;;14.86;53.79
68107;BME280;54892;47.488;19.026;2023-03-26T11:40:44;99233.38;;;14.97;52.48
68107;BME280;54892;47.488;19.026;2023-03-26T11:43:52;99225.03;;;15.13;52.96
68107;BME280;54892;47.488;19.026;2023-03-26T11:46:57;99220.44;;;15.36;51.82
68107;BME280;54892;47.488;19.026;2023-03-26T11:50:05;99221.13;;;15.50;50.71
68107;BME280;54892;47.488;19.026;2023-03-26T11:53:12;99210.75;;;15.80;47.37
68107;BME280;54892;47.488;19.026;2023-03-26T11:56:24;99201.56;;;15.87;49.58
68107;BME280;54892;47.488;19.026;2023-03-26T11:59:29;99194.38;;;16.05;49.43
68107;BME280;54892;47.488;19.026;2023-03-26T12:02:41;99190.50;;;16.28;49.05
68107;BME280;54892;47.488;19.026;2023-03-26T12:05:46;99174.06;;;16.18;49.23
68107;BME280;54892;47.488;19.026;2023-03-26T12:08:50;99169.34;;;15.88;45.72
68107;BME280;54892;47.488;19.026;2023-03-26T12:11:59;99152.53;;;15.79;46.30
68107;BME280;54892;47.488;19.026;2023-03-26T12:15:04;99154.16;;;15.89;48.04
68107;BME280;54892;47.488;19.026;2023-03-26T12:18:19;99145.22;;;15.93;48.22
68107;BME280;54892;47.488;19.026;2023-03-26T12:21:25;99144.62;;;16.14;47.81
68107;BME280;54892;47.488;19.026;2023-03-26T12:24:32;99135.53;;;16.41;44.34
68107;BME280;54892;47.488;19.026;2023-03-26T12:27:41;99130.34;;;16.36;43.10
68107;BME280;54892;47.488;19.026;2023-03-26T12:30:49;99125.97;;;16.49;43.75
68107;BME280;54892;47.488;19.026;2023-03-26T12:34:05;99123.56;;;16.74;43.23
68107;BME280;54892;47.488;19.026;2023-03-26T12:40:30;99107.41;;;16.79;42.31
68107;BME280;54892;47.488;19.026;2023-03-26T12:43:35;99089.16;;;16.90;41.96
68107;BME280;54892;47.488;19.026;2023-03-26T12:46:42;99075.75;;;17.16;38.91
68107;BME280;54892;47.488;19.026;2023-03-26T12:49:48;99067.22;;;17.23;38.17
68107;BME280;54892;47.488;19.026;2023-03-26T12:52:55;99079.94;;;17.26;39.16
68107;BME280;54892;47.488;19.026;2023-03-26T12:56:07;99062.81;;;17.27;34.65
68107;BME280;54892;47.488;19.026;2023-03-26T12:59:16;99064.81;;;17.09;34.24
68107;BME280;54892;47.488;19.026;2023-03-26T13:02:28;99080.84;;;16.92;34.31
68107;BME280;54892;47.488;19.026;2023-03-26T13:05:40;99074.31;;;16.80;34.94
68107;BME280;54892;47.488;19.026;2023-03-26T13:08:55;99074.72;;;16.91;35.33
68107;BME280;54892;47.488;19.026;2023-03-26T13:12:08;99062.13;;;16.70;35.12
68107;BME280;54892;47.488;19.026;2023-03-26T13:15:19;99049.50;;;16.88;34.72
68107;BME280;54892;47.488;19.026;2023-03-26T13:18:26;99045.91;;;16.84;35.39
68107;BME280;54892;47.488;19.026;2023-03-26T13:21:35;99034.66;;;16.79;35.48
68107;BME280;54892;47.488;19.026;2023-03-26T13:24:42;99032.28;;;16.86;36.39
68107;BME280;54892;47.488;19.026;2023-03-26T13:27:52;99028.34;;;16.83;35.93
68107;BME280;54892;47.488;19.026;2023-03-26T13:31:02;99021.56;;;16.65;36.27
68107;BME280;54892;47.488;19.026;2023-03-26T13:34:08;99007.12;;;16.66;36.98
68107;BME280;54892;47.488;19.026;2023-03-26T13:37:18;99000.47;;;16.81;37.33
68107;BME280;54892;47.488;19.026;2023-03-26T13:40:28;98997.31;;;17.17;36.26
68107;BME280;54892;47.488;19.026;2023-03-26T13:43:38;98993.31;;;17.32;34.98
68107;BME280;54892;47.488;19.026;2023-03-26T13:46:45;98994.34;;;17.40;34.10
68107;BME280;54892;47.488;19.026;2023-03-26T13:49:51;98988.63;;;17.29;34.04
68107;BME280;54892;47.488;19.026;2023-03-26T13:52:58;98987.09;;;17.19;34.43
68107;BME280;54892;47.488;19.026;2023-03-26T13:56:03;98981.38;;;17.30;34.98
68107;BME280;54892;47.488;19.026;2023-03-26T13:59:13;98971.44;;;17.18;35.00
68107;BME280;54892;47.488;19.026;2023-03-26T14:02:22;98968.91;;;17.22;35.83
68107;BME280;54892;47.488;19.026;2023-03-26T14:05:29;98962.34;;;17.19;34.61
68107;BME280;54892;47.488;19.026;2023-03-26T14:08:34;98955.56;;;17.22;34.84
68107;BME280;54892;47.488;19.026;2023-03-26T14:11:47;98945.81;;;17.47;34.11
68107;BME280;54892;47.488;19.026;2023-03-26T14:14:54;98947.44;;;17.39;33.89
68107;BME280;54892;47.488;19.026;2023-03-26T14:18:02;98939.16;;;17.32;33.39
68107;BME280;54892;47.488;19.026;2023-03-26T14:21:19;98934.16;;;17.30;33.22
68107;BME280;54892;47.488;19.026;2023-03-26T14:24:33;98942.75;;;17.36;33.19
68107;BME280;54892;47.488;19.026;2023-03-26T14:27:49;98930.97;;;17.37;32.64
68107;BME280;54892;47.488;19.026;2023-03-26T14:30:57;98937.22;;;17.41;32.55
68107;BME280;54892;47.488;19.026;2023-03-26T14:34:10;98931.94;;;17.54;31.79
68107;BME280;54892;47.488;19.026;2023-03-26T14:44:16;98912.28;;;17.58;31.77
68107;BME280;54892;47.488;19.026;2023-03-26T14:47:27;98915.75;;;17.59;31.70
68107;BME280;54892;47.488;19.026;2023-03-26T14:50:38;98912.06;;;17.63;30.24
68107;BME280;54892;47.488;19.026;2023-03-26T14:53:47;98900.84;;;17.58;29.82
68107;BME280;54892;47.488;19.026;2023-03-26T14:57:06;98903.19;;;17.38;29.13
68107;BME280;54892;47.488;19.026;2023-03-26T15:00:24;98896.00;;;17.17;29.30
68107;BME280;54892;47.488;19.026;2023-03-26T15:07:09;98881.94;;;16.87;30.05
68107;BME280;54892;47.488;19.026;2023-03-26T15:10:38;98871.69;;;16.98;30.29
68107;BME280;54892;47.488;19.026;2023-03-26T15:13:54;98864.13;;;17.00;30.51
68107;BME280;54892;47.488;19.026;2023-03-26T15:24:11;98853.16;;;16.80;31.12
68107;BME280;54892;47.488;19.026;2023-03-26T15:27:28;98841.75;;;16.71;30.99
68107;BME280;54892;47.488;19.026;2023-03-26T15:40:51;98831.31;;;16.66;32.42
68107;BME280;54892;47.488;19.026;2023-03-26T15:47:42;98825.66;;;16.67;32.71
68107;BME280;54892;47.488;19.026;2023-03-26T15:50:52;98826.03;;;16.78;32.61
68107;BME280;54892;47.488;19.026;2023-03-26T15:54:03;98818.50;;;16.80;31.06
68107;BME280;54892;47.488;19.026;2023-03-26T15:57:14;98818.34;;;16.77;31.52
68107;BME280;54892;47.488;19.026;2023-03-26T16:00:21;98811.69;;;16.70;32.44
68107;BME280;54892;47.488;19.026;2023-03-26T16:03:31;98808.88;;;16.67;33.83
68107;BME280;54892;47.488;19.026;2023-03-26T16:06:39;98799.00;;;16.67;33.69
68107;BME280;54892;47.488;19.026;2023-03-26T16:09:53;98799.06;;;16.58;33.45
68107;BME280;54892;47.488;19.026;2023-03-26T16:19:53;98773.19;;;16.80;35.15
68107;BME280;54892;47.488;19.026;2023-03-26T16:23:01;98772.44;;;16.07;35.71
68107;BME280;54892;47.488;19.026;2023-03-26T16:26:11;98752.94;;;15.94;35.44
68107;BME280;54892;47.488;19.026;2023-03-26T16:29:21;98742.81;;;15.88;35.42
68107;BME280;54892;47.488;19.026;2023-03-26T16:32:28;98743.41;;;15.84;35.32
68107;BME280;54892;47.488;19.026;2023-03-26T16:35:51;98752.56;;;15.66;36.01
68107;BME280;54892;47.488;19.026;2023-03-26T16:39:20;98746.97;;;15.59;36.07
68107;BME280;54892;47.488;19.026;2023-03-26T16:42:27;98743.41;;;15.46;36.40
68107;BME280;54892;47.488;19.026;2023-03-26T16:45:33;98740.97;;;15.41;36.61
68107;BME280;54892;47.488;19.026;2023-03-26T16:48:44;98747.88;;;15.33;37.20
68107;BME280;54892;47.488;19.026;2023-03-26T16:55:16;98751.47;;;15.19;37.05
68107;BME280;54892;47.488;19.026;2023-03-26T16:58:25;98755.69;;;15.12;37.29
68107;BME280;54892;47.488;19.026;2023-03-26T17:01:33;98755.41;;;15.04;37.37
68107;BME280;54892;47.488;19.026;2023-03-26T17:04:38;98751.34;;;14.98;37.61
68107;BME280;54892;47.488;19.026;2023-03-26T17:07:47;98751.97;;;14.95;37.71
68107;BME280;54892;47.488;19.026;2023-03-26T17:11:02;98761.22;;;14.89;38.01
68107;BME280;54892;47.488;19.026;2023-03-26T17:14:21;98753.88;;;14.77;38.17
68107;BME280;54892;47.488;19.026;2023-03-26T17:17:35;98756.53;;;14.77;38.52
68107;BME280;54892;47.488;19.026;2023-03-26T17:20:47;98753.25;;;14.71;38.73
68107;BME280;54892;47.488;19.026;2023-03-26T17:23:58;98757.13;;;14.65;39.15
68107;BME280;54892;47.488;19.026;2023-03-26T17:27:14;98758.87;;;14.61;39.39
68107;BME280;54892;47.488;19.026;2023-03-26T17:30:30;98754.94;;;14.58;39.69
68107;BME280;54892;47.488;19.026;2023-03-26T17:33:36;98753.56;;;14.52;39.75
68107;BME280;54892;47.488;19.026;2023-03-26T17:36:44;98754.78;;;14.55;39.95
68107;BME280;54892;47.488;19.026;2023-03-26T17:43:33;98755.41;;;14.52;40.10
68107;BME280;54892;47.488;19.026;2023-03-26T17:46:39;98748.53;;;14.51;40.22
68107;BME280;54892;47.488;19.026;2023-03-26T17:49:43;98749.63;;;14.50;40.57
68107;BME280;54892;47.488;19.026;2023-03-26T17:52:50;98744.78;;;14.52;40.74
68107;BME280;54892;47.488;19.026;2023-03-26T17:55:59;98755.72;;;14.50;40.86
68107;BME280;54892;47.488;19.026;2023-03-26T17:59:06;98751.50;;;14.49;40.99
68107;BME280;54892;47.488;19.026;2023-03-26T18:02:17;98749.78;;;14.44;41.13